sensor_id;sensor_type;location;lat;lon;timestamp;P1;durP1;ratioP1;P2;durP2;ratioP2
5569;SDS011;2808;51.240;6.794;2023-04-03T00:00:58;10.77;;;4.23;;
5569;SDS011;2808;51.240;6.794;2023-04-03T00:03:26;9.33;;;3.67;;
5569;SDS011;2808;51.240;6.794;2023-04-03T00:05:54;6.97;;;3.67;;
5569;SDS011;2808;51.240;6.794;2023-04-03T00:08:21;9.43;;;4.00;;
5569;SDS011;2808;51.240;6.794;2023-04-03T00:10:50;7.60;;;4.03;;
5569;SDS011;2808;51.240;6.794;2023-04-03T00:13:18;8.77;;;3.70;;
5569;SDS011;2808;51.240;6.794;2023-04-03T00:15:46;9.70;;;3.80;;
5569;SDS011;2808;51.240;6.794;2023-04-03T00:18:13;13.40;;;3.57;;
5569;SDS011;2808;51.240;6.794;2023-04-03T00:20:41;9.93;;;4.00;;
5569;SDS011;2808;51.240;6.794;2023-04-03T00:23:09;11.37;;;3.97;;
5569;SDS011;2808;51.240;6.794;2023-04-03T00:25:37;7.47;;;3.67;;
5569;SDS011;2808;51.240;6.794;2023-04-03T00:28:06;6.53;;;3.13;;
5569;SDS011;2808;51.240;6.794;2023-04-03T00:30:33;8.40;;;3.30;;
5569;SDS011;2808;51.240;6.794;2023-04-03T00:33:01;9.10;;;3.50;;
5569;SDS011;2808;51.240;6.794;2023-04-03T00:35:29;8.37;;;3.37;;
5569;SDS011;2808;51.240;6.794;2023-04-03T00:37:56;7.03;;;2.97;;
5569;SDS011;2808;51.240;6.794;2023-04-03T00:40:25;8.40;;;3.80;;
5569;SDS011;2808;51.240;6.794;2023-04-03T00:42:55;14.57;;;4.00;;
5569;SDS011;2808;51.240;6.794;2023-04-03T00:45:31;11.53;;;3.80;;
5569;SDS011;2808;51.240;6.794;2023-04-03T00:48:02;7.10;;;3.53;;
5569;SDS011;2808;51.240;6.794;2023-04-03T00:50:32;6.17;;;3.33;;
5569;SDS011;2808;51.240;6.794;2023-04-03T00:53:03;7.10;;;3.27;;
5569;SDS011;2808;51.240;6.794;2023-04-03T00:55:32;10.23;;;3.83;;
5569;SDS011;2808;51.240;6.794;2023-04-03T00:58:01;10.10;;;3.40;;
5569;SDS011;2808;51.240;6.794;2023-04-03T01:00:31;9.07;;;3.43;;
5569;SDS011;2808;51.240;6.794;2023-04-03T01:03:00;7.47;;;3.57;;
5569;SDS011;2808;51.240;6.794;2023-04-03T01:05:28;6.67;;;3.30;;
5569;SDS011;2808;51.240;6.794;2023-04-03T01:07:56;6.80;;;3.40;;
5569;SDS011;2808;51.240;6.794;2023-04-03T01:10:24;6.40;;;3.33;;
5569;SDS011;2808;51.240;6.794;2023-04-03T01:12:52;7.93;;;3.77;;
5569;SDS011;2808;51.240;6.794;2023-04-03T01:15:21;8.20;;;3.37;;
5569;SDS011;2808;51.240;6.794;2023-04-03T01:17:53;7.40;;;3.30;;
5569;SDS011;2808;51.240;6.794;2023-04-03T01:23:31;10.73;;;3.60;;
5569;SDS011;2808;51.240;6.794;2023-04-03T01:26:16;6.90;;;3.30;;
5569;SDS011;2808;51.240;6.794;2023-04-03T01:28:44;10.57;;;3.30;;
5569;SDS011;2808;51.240;6.794;2023-04-03T01:31:13;8.20;;;2.80;;
5569;SDS011;2808;51.240;6.794;2023-04-03T01:33:47;6.30;;;3.57;;
5569;SDS011;2808;51.240;6.794;2023-04-03T01:36:15;6.50;;;3.13;;
5569;SDS011;2808;51.240;6.794;2023-04-03T01:38:44;6.03;;;3.73;;
5569;SDS011;2808;51.240;6.794;2023-04-03T01:41:11;14.03;;;3.13;;
5569;SDS011;2808;51.240;6.794;2023-04-03T01:43:40;10.33;;;3.30;;
5569;SDS011;2808;51.240;6.794;2023-04-03T01:46:08;9.93;;;3.33;;
5569;SDS011;2808;51.240;6.794;2023-04-03T01:48:35;10.03;;;3.40;;
5569;SDS011;2808;51.240;6.794;2023-04-03T01:51:04;5.87;;;2.90;;
5569;SDS011;2808;51.240;6.794;2023-04-03T01:53:32;7.50;;;3.43;;
5569;SDS011;2808;51.240;6.794;2023-04-03T01:56:00;7.60;;;3.10;;
5569;SDS011;2808;51.240;6.794;2023-04-03T01:58:27;11.90;;;3.20;;
5569;SDS011;2808;51.240;6.794;2023-04-03T02:00:54;6.77;;;3.20;;
5569;SDS011;2808;51.240;6.794;2023-04-03T02:03:22;7.13;;;3.20;;
5569;SDS011;2808;51.240;6.794;2023-04-03T02:05:50;6.70;;;3.07;;
5569;SDS011;2808;51.240;6.794;2023-04-03T02:08:19;4.67;;;2.70;;
5569;SDS011;2808;51.240;6.794;2023-04-03T02:10:51;5.33;;;3.10;;
5569;SDS011;2808;51.240;6.794;2023-04-03T02:13:19;9.20;;;3.40;;
5569;SDS011;2808;51.240;6.794;2023-04-03T02:15:46;6.77;;;3.10;;
5569;SDS011;2808;51.240;6.794;2023-04-03T02:18:14;7.00;;;3.47;;
5569;SDS011;2808;51.240;6.794;2023-04-03T02:20:41;6.33;;;3.03;;
5569;SDS011;2808;51.240;6.794;2023-04-03T02:23:09;9.10;;;3.10;;
5569;SDS011;2808;51.240;6.794;2023-04-03T02:25:38;8.30;;;3.73;;
5569;SDS011;2808;51.240;6.794;2023-04-03T02:28:06;7.37;;;3.27;;
5569;SDS011;2808;51.240;6.794;2023-04-03T02:30:33;8.30;;;3.20;;
5569;SDS011;2808;51.240;6.794;2023-04-03T02:33:01;8.27;;;3.10;;
5569;SDS011;2808;51.240;6.794;2023-04-03T02:35:29;10.43;;;3.90;;
5569;SDS011;2808;51.240;6.794;2023-04-03T02:37:56;7.20;;;3.60;;
5569;SDS011;2808;51.240;6.794;2023-04-03T02:40:24;9.23;;;3.50;;
5569;SDS011;2808;51.240;6.794;2023-04-03T02:42:52;9.70;;;4.43;;
5569;SDS011;2808;51.240;6.794;2023-04-03T02:45:20;7.63;;;3.47;;
5569;SDS011;2808;51.240;6.794;2023-04-03T02:47:47;20.83;;;4.10;;
5569;SDS011;2808;51.240;6.794;2023-04-03T02:50:15;10.40;;;4.00;;
5569;SDS011;2808;51.240;6.794;2023-04-03T02:52:43;10.57;;;3.97;;
5569;SDS011;2808;51.240;6.794;2023-04-03T02:55:12;9.33;;;3.40;;
5569;SDS011;2808;51.240;6.794;2023-04-03T02:57:41;7.40;;;3.83;;
5569;SDS011;2808;51.240;6.794;2023-04-03T03:00:10;9.17;;;3.60;;
5569;SDS011;2808;51.240;6.794;2023-04-03T03:02:39;11.03;;;3.90;;
5569;SDS011;2808;51.240;6.794;2023-04-03T03:05:07;10.07;;;4.10;;
5569;SDS011;2808;51.240;6.794;2023-04-03T03:07:35;7.27;;;3.80;;
5569;SDS011;2808;51.240;6.794;2023-04-03T03:10:03;7.80;;;4.27;;
5569;SDS011;2808;51.240;6.794;2023-04-03T03:12:33;10.10;;;3.97;;
5569;SDS011;2808;51.240;6.794;2023-04-03T03:15:01;8.50;;;3.83;;
5569;SDS011;2808;51.240;6.794;2023-04-03T03:17:30;6.73;;;3.97;;
5569;SDS011;2808;51.240;6.794;2023-04-03T03:19:58;10.73;;;4.10;;
5569;SDS011;2808;51.240;6.794;2023-04-03T03:22:25;6.17;;;3.30;;
5569;SDS011;2808;51.240;6.794;2023-04-03T03:24:55;8.60;;;3.70;;
5569;SDS011;2808;51.240;6.794;2023-04-03T03:27:22;10.17;;;3.17;;
5569;SDS011;2808;51.240;6.794;2023-04-03T03:29:50;10.93;;;3.97;;
5569;SDS011;2808;51.240;6.794;2023-04-03T03:32:18;9.00;;;3.30;;
5569;SDS011;2808;51.240;6.794;2023-04-03T03:34:46;6.37;;;3.30;;
5569;SDS011;2808;51.240;6.794;2023-04-03T03:37:16;8.23;;;3.90;;
5569;SDS011;2808;51.240;6.794;2023-04-03T03:39:43;8.00;;;3.27;;
5569;SDS011;2808;51.240;6.794;2023-04-03T03:42:11;6.33;;;3.40;;
5569;SDS011;2808;51.240;6.794;2023-04-03T03:44:38;10.53;;;3.37;;
5569;SDS011;2808;51.240;6.794;2023-04-03T03:47:06;8.43;;;3.20;;
5569;SDS011;2808;51.240;6.794;2023-04-03T03:49:35;9.40;;;3.87;;
5569;SDS011;2808;51.240;6.794;2023-04-03T03:52:04;11.77;;;3.00;;
5569;SDS011;2808;51.240;6.794;2023-04-03T03:54:35;6.97;;;3.40;;
5569;SDS011;2808;51.240;6.794;2023-04-03T03:57:03;10.77;;;3.17;;
5569;SDS011;2808;51.240;6.794;2023-04-03T03:59:30;6.57;;;2.73;;
5569;SDS011;2808;51.240;6.794;2023-04-03T04:01:58;15.03;;;3.67;;
5569;SDS011;2808;51.240;6.794;2023-04-03T04:04:26;9.60;;;3.40;;
5569;SDS011;2808;51.240;6.794;2023-04-03T04:06:53;9.40;;;3.10;;
5569;SDS011;2808;51.240;6.794;2023-04-03T04:09:22;10.17;;;3.37;;
5569;SDS011;2808;51.240;6.794;2023-04-03T04:11:51;10.33;;;4.30;;
5569;SDS011;2808;51.240;6.794;2023-04-03T04:14:18;7.50;;;3.60;;
5569;SDS011;2808;51.240;6.794;2023-04-03T04:16:46;8.30;;;3.57;;
5569;SDS011;2808;51.240;6.794;2023-04-03T04:19:16;10.20;;;3.23;;
5569;SDS011;2808;51.240;6.794;2023-04-03T04:21:44;7.30;;;3.27;;
5569;SDS011;2808;51.240;6.794;2023-04-03T04:24:11;7.67;;;3.00;;
5569;SDS011;2808;51.240;6.794;2023-04-03T04:26:40;12.87;;;3.20;;
5569;SDS011;2808;51.240;6.794;2023-04-03T04:29:08;7.40;;;3.47;;
5569;SDS011;2808;51.240;6.794;2023-04-03T04:31:36;11.13;;;3.40;;
5569;SDS011;2808;51.240;6.794;2023-04-03T04:34:05;10.00;;;3.70;;
5569;SDS011;2808;51.240;6.794;2023-04-03T04:36:35;10.40;;;3.37;;
5569;SDS011;2808;51.240;6.794;2023-04-03T04:39:03;11.83;;;3.57;;
5569;SDS011;2808;51.240;6.794;2023-04-03T04:41:31;8.77;;;3.50;;
5569;SDS011;2808;51.240;6.794;2023-04-03T04:44:02;8.20;;;3.30;;
5569;SDS011;2808;51.240;6.794;2023-04-03T04:46:30;6.47;;;3.27;;
5569;SDS011;2808;51.240;6.794;2023-04-03T04:48:57;10.30;;;3.13;;
5569;SDS011;2808;51.240;6.794;2023-04-03T04:51:25;12.00;;;3.20;;
5569;SDS011;2808;51.240;6.794;2023-04-03T04:53:52;5.70;;;2.93;;
5569;SDS011;2808;51.240;6.794;2023-04-03T04:56:20;7.10;;;2.90;;
5569;SDS011;2808;51.240;6.794;2023-04-03T04:58:47;17.60;;;3.67;;
5569;SDS011;2808;51.240;6.794;2023-04-03T05:01:16;14.00;;;2.80;;
5569;SDS011;2808;51.240;6.794;2023-04-03T05:03:44;4.77;;;2.80;;
5569;SDS011;2808;51.240;6.794;2023-04-03T05:06:12;6.30;;;3.13;;
5569;SDS011;2808;51.240;6.794;2023-04-03T05:08:40;8.13;;;2.70;;
5569;SDS011;2808;51.240;6.794;2023-04-03T05:11:07;7.10;;;3.00;;
5569;SDS011;2808;51.240;6.794;2023-04-03T05:13:35;10.57;;;3.40;;
5569;SDS011;2808;51.240;6.794;2023-04-03T05:16:03;7.83;;;2.70;;
5569;SDS011;2808;51.240;6.794;2023-04-03T05:18:34;16.73;;;3.13;;
5569;SDS011;2808;51.240;6.794;2023-04-03T05:21:01;9.93;;;2.87;;
5569;SDS011;2808;51.240;6.794;2023-04-03T05:23:29;6.20;;;2.80;;
5569;SDS011;2808;51.240;6.794;2023-04-03T05:25:57;5.87;;;2.57;;
5569;SDS011;2808;51.240;6.794;2023-04-03T05:28:24;7.67;;;2.53;;
5569;SDS011;2808;51.240;6.794;2023-04-03T05:30:55;9.37;;;2.70;;
5569;SDS011;2808;51.240;6.794;2023-04-03T05:33:24;9.07;;;2.70;;
5569;SDS011;2808;51.240;6.794;2023-04-03T05:35:53;6.43;;;2.40;;
5569;SDS011;2808;51.240;6.794;2023-04-03T05:38:21;9.00;;;2.60;;
5569;SDS011;2808;51.240;6.794;2023-04-03T05:40:49;6.50;;;2.70;;
5569;SDS011;2808;51.240;6.794;2023-04-03T05:43:16;8.37;;;2.53;;
5569;SDS011;2808;51.240;6.794;2023-04-03T05:45:44;8.90;;;2.50;;
5569;SDS011;2808;51.240;6.794;2023-04-03T05:48:13;14.40;;;2.93;;
5569;SDS011;2808;51.240;6.794;2023-04-03T05:50:40;8.60;;;2.17;;
5569;SDS011;2808;51.240;6.794;2023-04-03T05:53:10;9.93;;;3.23;;
5569;SDS011;2808;51.240;6.794;2023-04-03T05:55:44;9.07;;;2.80;;
5569;SDS011;2808;51.240;6.794;2023-04-03T05:58:11;9.90;;;2.97;;
5569;SDS011;2808;51.240;6.794;2023-04-03T06:00:39;6.40;;;2.03;;
5569;SDS011;2808;51.240;6.794;2023-04-03T06:03:06;7.40;;;2.67;;
5569;SDS011;2808;51.240;6.794;2023-04-03T06:05:34;13.87;;;2.57;;
5569;SDS011;2808;51.240;6.794;2023-04-03T06:08:01;9.87;;;2.30;;
5569;SDS011;2808;51.240;6.794;2023-04-03T06:10:30;6.80;;;2.57;;
5569;SDS011;2808;51.240;6.794;2023-04-03T06:12:58;7.80;;;2.53;;
5569;SDS011;2808;51.240;6.794;2023-04-03T06:15:25;6.93;;;2.67;;
5569;SDS011;2808;51.240;6.794;2023-04-03T06:17:56;7.87;;;2.40;;
5569;SDS011;2808;51.240;6.794;2023-04-03T06:20:23;5.20;;;2.40;;
5569;SDS011;2808;51.240;6.794;2023-04-03T06:22:50;4.90;;;2.10;;
5569;SDS011;2808;51.240;6.794;2023-04-03T06:25:18;13.00;;;2.43;;
5569;SDS011;2808;51.240;6.794;2023-04-03T06:27:47;12.10;;;3.03;;
5569;SDS011;2808;51.240;6.794;2023-04-03T06:30:15;13.37;;;2.70;;
5569;SDS011;2808;51.240;6.794;2023-04-03T06:32:42;8.40;;;2.57;;
5569;SDS011;2808;51.240;6.794;2023-04-03T06:35:10;6.70;;;2.10;;
5569;SDS011;2808;51.240;6.794;2023-04-03T06:37:37;8.40;;;2.50;;
5569;SDS011;2808;51.240;6.794;2023-04-03T06:40:05;5.93;;;2.40;;
5569;SDS011;2808;51.240;6.794;2023-04-03T06:42:36;10.57;;;2.77;;
5569;SDS011;2808;51.240;6.794;2023-04-03T06:45:07;6.63;;;2.40;;
5569;SDS011;2808;51.240;6.794;2023-04-03T06:47:38;6.37;;;2.17;;
5569;SDS011;2808;51.240;6.794;2023-04-03T06:50:06;11.50;;;2.17;;
5569;SDS011;2808;51.240;6.794;2023-04-03T06:52:36;4.63;;;2.23;;
5569;SDS011;2808;51.240;6.794;2023-04-03T06:55:05;7.80;;;2.70;;
5569;SDS011;2808;51.240;6.794;2023-04-03T06:57:33;5.97;;;2.17;;
5569;SDS011;2808;51.240;6.794;2023-04-03T07:00:01;8.50;;;2.37;;
5569;SDS011;2808;51.240;6.794;2023-04-03T07:02:31;9.97;;;2.37;;
5569;SDS011;2808;51.240;6.794;2023-04-03T07:04:59;11.40;;;2.20;;
5569;SDS011;2808;51.240;6.794;2023-04-03T07:07:26;10.10;;;2.20;;
5569;SDS011;2808;51.240;6.794;2023-04-03T07:09:54;8.20;;;2.40;;
5569;SDS011;2808;51.240;6.794;2023-04-03T07:12:21;7.33;;;2.27;;
5569;SDS011;2808;51.240;6.794;2023-04-03T07:14:49;10.60;;;2.50;;
5569;SDS011;2808;51.240;6.794;2023-04-03T07:17:16;7.20;;;2.37;;
5569;SDS011;2808;51.240;6.794;2023-04-03T07:23:27;12.10;;;2.37;;
5569;SDS011;2808;51.240;6.794;2023-04-03T07:26:00;6.83;;;2.00;;
5569;SDS011;2808;51.240;6.794;2023-04-03T07:28:27;6.70;;;2.30;;
5569;SDS011;2808;51.240;6.794;2023-04-03T07:31:11;10.30;;;2.50;;
5569;SDS011;2808;51.240;6.794;2023-04-03T07:33:40;7.57;;;1.87;;
5569;SDS011;2808;51.240;6.794;2023-04-03T07:36:09;7.77;;;2.30;;
5569;SDS011;2808;51.240;6.794;2023-04-03T07:38:42;4.67;;;2.23;;
5569;SDS011;2808;51.240;6.794;2023-04-03T07:41:13;6.10;;;1.80;;
5569;SDS011;2808;51.240;6.794;2023-04-03T07:43:44;6.70;;;2.40;;
5569;SDS011;2808;51.240;6.794;2023-04-03T07:46:14;9.13;;;2.27;;
5569;SDS011;2808;51.240;6.794;2023-04-03T07:48:43;8.93;;;2.57;;
5569;SDS011;2808;51.240;6.794;2023-04-03T07:51:11;6.30;;;1.43;;
5569;SDS011;2808;51.240;6.794;2023-04-03T07:53:40;6.70;;;1.90;;
5569;SDS011;2808;51.240;6.794;2023-04-03T07:56:09;5.00;;;2.90;;
5569;SDS011;2808;51.240;6.794;2023-04-03T07:58:39;6.27;;;2.00;;
5569;SDS011;2808;51.240;6.794;2023-04-03T08:01:07;5.17;;;1.90;;
5569;SDS011;2808;51.240;6.794;2023-04-03T08:03:38;9.73;;;2.20;;
5569;SDS011;2808;51.240;6.794;2023-04-03T08:06:08;7.07;;;1.80;;
5569;SDS011;2808;51.240;6.794;2023-04-03T08:08:37;7.40;;;1.57;;
5569;SDS011;2808;51.240;6.794;2023-04-03T08:11:14;8.00;;;1.90;;
5569;SDS011;2808;51.240;6.794;2023-04-03T08:13:47;9.40;;;1.90;;
5569;SDS011;2808;51.240;6.794;2023-04-03T08:16:18;6.50;;;2.00;;
5569;SDS011;2808;51.240;6.794;2023-04-03T08:18:48;6.57;;;2.00;;
5569;SDS011;2808;51.240;6.794;2023-04-03T08:21:15;7.93;;;1.90;;
5569;SDS011;2808;51.240;6.794;2023-04-03T08:23:43;5.37;;;1.57;;
5569;SDS011;2808;51.240;6.794;2023-04-03T08:26:13;8.80;;;1.80;;
5569;SDS011;2808;51.240;6.794;2023-04-03T08:28:42;8.60;;;2.10;;
5569;SDS011;2808;51.240;6.794;2023-04-03T08:31:10;5.50;;;1.70;;
5569;SDS011;2808;51.240;6.794;2023-04-03T08:33:39;6.47;;;1.50;;
5569;SDS011;2808;51.240;6.794;2023-04-03T08:36:08;4.87;;;1.63;;
5569;SDS011;2808;51.240;6.794;2023-04-03T08:38:43;9.20;;;2.50;;
5569;SDS011;2808;51.240;6.794;2023-04-03T08:58:27;9.70;;;1.70;;
5569;SDS011;2808;51.240;6.794;2023-04-03T09:12:03;7.47;;;1.50;;
5569;SDS011;2808;51.240;6.794;2023-04-03T09:15:34;5.33;;;1.30;;
5569;SDS011;2808;51.240;6.794;2023-04-03T09:18:03;5.23;;;1.30;;
5569;SDS011;2808;51.240;6.794;2023-04-03T09:20:39;5.13;;;1.40;;
5569;SDS011;2808;51.240;6.794;2023-04-03T09:23:13;9.77;;;1.50;;
5569;SDS011;2808;51.240;6.794;2023-04-03T09:25:45;3.70;;;1.40;;
5569;SDS011;2808;51.240;6.794;2023-04-03T09:28:16;4.03;;;1.30;;
5569;SDS011;2808;51.240;6.794;2023-04-03T09:30:45;6.47;;;1.33;;
5569;SDS011;2808;51.240;6.794;2023-04-03T09:33:13;4.93;;;1.20;;
5569;SDS011;2808;51.240;6.794;2023-04-03T09:35:42;4.17;;;1.40;;
5569;SDS011;2808;51.240;6.794;2023-04-03T09:38:17;4.40;;;1.50;;
5569;SDS011;2808;51.240;6.794;2023-04-03T09:40:47;4.30;;;1.10;;
5569;SDS011;2808;51.240;6.794;2023-04-03T09:43:21;6.57;;;1.80;;
5569;SDS011;2808;51.240;6.794;2023-04-03T09:45:54;5.50;;;1.50;;
5569;SDS011;2808;51.240;6.794;2023-04-03T09:48:23;4.57;;;1.53;;
5569;SDS011;2808;51.240;6.794;2023-04-03T09:50:57;3.60;;;1.27;;
5569;SDS011;2808;51.240;6.794;2023-04-03T09:53:27;3.20;;;1.30;;
5569;SDS011;2808;51.240;6.794;2023-04-03T09:55:57;9.63;;;1.40;;
5569;SDS011;2808;51.240;6.794;2023-04-03T09:58:28;6.50;;;1.60;;
5569;SDS011;2808;51.240;6.794;2023-04-03T10:01:03;6.90;;;1.50;;
5569;SDS011;2808;51.240;6.794;2023-04-03T10:03:32;4.70;;;1.73;;
5569;SDS011;2808;51.240;6.794;2023-04-03T10:06:01;5.70;;;1.60;;
5569;SDS011;2808;51.240;6.794;2023-04-03T10:08:34;14.13;;;1.73;;
5569;SDS011;2808;51.240;6.794;2023-04-03T10:11:08;3.93;;;1.53;;
5569;SDS011;2808;51.240;6.794;2023-04-03T10:13:54;5.13;;;1.50;;
5569;SDS011;2808;51.240;6.794;2023-04-03T10:17:01;3.97;;;1.50;;
5569;SDS011;2808;51.240;6.794;2023-04-03T10:19:40;7.93;;;1.70;;
5569;SDS011;2808;51.240;6.794;2023-04-03T10:22:16;4.97;;;1.63;;
5569;SDS011;2808;51.240;6.794;2023-04-03T10:24:50;6.50;;;1.70;;
5569;SDS011;2808;51.240;6.794;2023-04-03T10:27:26;5.20;;;1.50;;
5569;SDS011;2808;51.240;6.794;2023-04-03T10:30:19;4.43;;;1.80;;
5569;SDS011;2808;51.240;6.794;2023-04-03T10:33:00;5.40;;;1.93;;
5569;SDS011;2808;51.240;6.794;2023-04-03T10:35:37;10.77;;;2.10;;
5569;SDS011;2808;51.240;6.794;2023-04-03T10:38:13;6.37;;;1.70;;
5569;SDS011;2808;51.240;6.794;2023-04-03T10:40:47;9.60;;;1.60;;
5569;SDS011;2808;51.240;6.794;2023-04-03T10:43:28;7.47;;;1.90;;
5569;SDS011;2808;51.240;6.794;2023-04-03T10:46:03;6.07;;;2.07;;
5569;SDS011;2808;51.240;6.794;2023-04-03T10:48:43;3.47;;;1.40;;
5569;SDS011;2808;51.240;6.794;2023-04-03T10:51:22;4.10;;;2.10;;
5569;SDS011;2808;51.240;6.794;2023-04-03T10:53:56;5.27;;;1.67;;
5569;SDS011;2808;51.240;6.794;2023-04-03T10:56:30;4.67;;;1.90;;
5569;SDS011;2808;51.240;6.794;2023-04-03T11:01:48;8.70;;;1.97;;
5569;SDS011;2808;51.240;6.794;2023-04-03T11:04:19;10.13;;;1.80;;
5569;SDS011;2808;51.240;6.794;2023-04-03T11:06:49;3.57;;;1.33;;
5569;SDS011;2808;51.240;6.794;2023-04-03T11:09:21;7.27;;;1.60;;
5569;SDS011;2808;51.240;6.794;2023-04-03T11:11:53;5.47;;;1.77;;
5569;SDS011;2808;51.240;6.794;2023-04-03T11:14:26;6.30;;;1.33;;
5569;SDS011;2808;51.240;6.794;2023-04-03T11:17:03;8.60;;;2.53;;
5569;SDS011;2808;51.240;6.794;2023-04-03T11:19:44;5.57;;;1.77;;
5569;SDS011;2808;51.240;6.794;2023-04-03T11:22:22;6.37;;;1.47;;
5569;SDS011;2808;51.240;6.794;2023-04-03T11:24:56;4.90;;;1.40;;
5569;SDS011;2808;51.240;6.794;2023-04-03T11:27:30;3.60;;;1.53;;
5569;SDS011;2808;51.240;6.794;2023-04-03T11:30:05;2.77;;;1.17;;
5569;SDS011;2808;51.240;6.794;2023-04-03T11:32:48;7.03;;;1.53;;
5569;SDS011;2808;51.240;6.794;2023-04-03T11:35:35;3.87;;;1.00;;
5569;SDS011;2808;51.240;6.794;2023-04-03T11:38:04;2.53;;;1.07;;
5569;SDS011;2808;51.240;6.794;2023-04-03T11:40:32;4.50;;;1.50;;
5569;SDS011;2808;51.240;6.794;2023-04-03T11:43:04;2.73;;;1.07;;
5569;SDS011;2808;51.240;6.794;2023-04-03T11:45:53;5.00;;;1.40;;
5569;SDS011;2808;51.240;6.794;2023-04-03T11:48:42;3.50;;;1.13;;
5569;SDS011;2808;51.240;6.794;2023-04-03T11:51:41;3.13;;;1.30;;
5569;SDS011;2808;51.240;6.794;2023-04-03T11:57:23;2.83;;;1.20;;
5569;SDS011;2808;51.240;6.794;2023-04-03T12:03:31;4.93;;;1.20;;
5569;SDS011;2808;51.240;6.794;2023-04-03T12:09:24;3.60;;;1.20;;
5569;SDS011;2808;51.240;6.794;2023-04-03T12:11:59;2.67;;;1.10;;
5569;SDS011;2808;51.240;6.794;2023-04-03T12:14:47;6.10;;;1.30;;
5569;SDS011;2808;51.240;6.794;2023-04-03T12:17:19;4.10;;;1.77;;
5569;SDS011;2808;51.240;6.794;2023-04-03T12:19:51;5.57;;;1.43;;
5569;SDS011;2808;51.240;6.794;2023-04-03T12:22:19;3.13;;;1.10;;
5569;SDS011;2808;51.240;6.794;2023-04-03T12:24:49;4.50;;;1.40;;
5569;SDS011;2808;51.240;6.794;2023-04-03T12:27:21;6.30;;;1.50;;
5569;SDS011;2808;51.240;6.794;2023-04-03T12:29:53;3.80;;;1.30;;
5569;SDS011;2808;51.240;6.794;2023-04-03T12:35:23;5.27;;;1.50;;
5569;SDS011;2808;51.240;6.794;2023-04-03T12:40:51;4.13;;;1.20;;
5569;SDS011;2808;51.240;6.794;2023-04-03T12:43:30;4.40;;;1.30;;
5569;SDS011;2808;51.240;6.794;2023-04-03T12:46:10;5.33;;;1.60;;
5569;SDS011;2808;51.240;6.794;2023-04-03T12:48:47;4.10;;;1.40;;
5569;SDS011;2808;51.240;6.794;2023-04-03T12:51:17;4.57;;;1.40;;
5569;SDS011;2808;51.240;6.794;2023-04-03T12:53:48;4.90;;;1.30;;
5569;SDS011;2808;51.240;6.794;2023-04-03T12:56:19;6.20;;;1.43;;
5569;SDS011;2808;51.240;6.794;2023-04-03T12:58:49;4.07;;;1.40;;
5569;SDS011;2808;51.240;6.794;2023-04-03T13:01:21;4.40;;;1.23;;
5569;SDS011;2808;51.240;6.794;2023-04-03T13:03:52;4.50;;;1.47;;
5569;SDS011;2808;51.240;6.794;2023-04-03T13:06:27;6.00;;;1.70;;
5569;SDS011;2808;51.240;6.794;2023-04-03T13:08:59;7.63;;;1.70;;
5569;SDS011;2808;51.240;6.794;2023-04-03T13:11:32;4.37;;;1.40;;
5569;SDS011;2808;51.240;6.794;2023-04-03T13:14:04;3.67;;;1.77;;
5569;SDS011;2808;51.240;6.794;2023-04-03T13:16:40;5.73;;;1.53;;
5569;SDS011;2808;51.240;6.794;2023-04-03T13:19:14;6.80;;;1.40;;
5569;SDS011;2808;51.240;6.794;2023-04-03T13:21:43;8.33;;;1.40;;
5569;SDS011;2808;51.240;6.794;2023-04-03T13:24:11;6.17;;;1.13;;
5569;SDS011;2808;51.240;6.794;2023-04-03T13:26:41;9.60;;;2.23;;
5569;SDS011;2808;51.240;6.794;2023-04-03T13:29:19;18.83;;;1.80;;
5569;SDS011;2808;51.240;6.794;2023-04-03T13:31:52;4.40;;;1.30;;
5569;SDS011;2808;51.240;6.794;2023-04-03T13:34:21;6.23;;;1.50;;
5569;SDS011;2808;51.240;6.794;2023-04-03T13:36:55;7.03;;;1.70;;
5569;SDS011;2808;51.240;6.794;2023-04-03T13:39:25;4.70;;;1.53;;
5569;SDS011;2808;51.240;6.794;2023-04-03T13:41:56;3.40;;;1.17;;
5569;SDS011;2808;51.240;6.794;2023-04-03T13:44:28;6.73;;;1.23;;
5569;SDS011;2808;51.240;6.794;2023-04-03T13:46:59;8.90;;;1.80;;
5569;SDS011;2808;51.240;6.794;2023-04-03T13:49:40;3.70;;;1.43;;
5569;SDS011;2808;51.240;6.794;2023-04-03T13:52:21;5.20;;;1.47;;
5569;SDS011;2808;51.240;6.794;2023-04-03T13:54:51;3.90;;;1.40;;
5569;SDS011;2808;51.240;6.794;2023-04-03T13:57:23;8.97;;;1.50;;
5569;SDS011;2808;51.240;6.794;2023-04-03T13:59:51;5.10;;;1.77;;
5569;SDS011;2808;51.240;6.794;2023-04-03T14:02:21;6.43;;;1.50;;
5569;SDS011;2808;51.240;6.794;2023-04-03T14:04:56;3.70;;;1.40;;
5569;SDS011;2808;51.240;6.794;2023-04-03T14:07:26;6.73;;;1.60;;
5569;SDS011;2808;51.240;6.794;2023-04-03T14:09:55;4.30;;;1.60;;
5569;SDS011;2808;51.240;6.794;2023-04-03T14:12:26;6.83;;;1.73;;
5569;SDS011;2808;51.240;6.794;2023-04-03T14:14:57;4.10;;;1.20;;
5569;SDS011;2808;51.240;6.794;2023-04-03T14:17:26;3.67;;;1.20;;
5569;SDS011;2808;51.240;6.794;2023-04-03T14:19:55;5.30;;;1.50;;
5569;SDS011;2808;51.240;6.794;2023-04-03T14:22:24;4.97;;;1.57;;
5569;SDS011;2808;51.240;6.794;2023-04-03T14:24:53;4.20;;;1.30;;
5569;SDS011;2808;51.240;6.794;2023-04-03T14:27:22;7.03;;;1.30;;
5569;SDS011;2808;51.240;6.794;2023-04-03T14:29:53;6.97;;;1.90;;
5569;SDS011;2808;51.240;6.794;2023-04-03T14:32:22;6.10;;;1.40;;
5569;SDS011;2808;51.240;6.794;2023-04-03T14:34:51;7.17;;;1.70;;
5569;SDS011;2808;51.240;6.794;2023-04-03T14:37:21;5.70;;;1.43;;
5569;SDS011;2808;51.240;6.794;2023-04-03T14:39:51;8.30;;;1.50;;
5569;SDS011;2808;51.240;6.794;2023-04-03T14:42:21;6.20;;;1.43;;
5569;SDS011;2808;51.240;6.794;2023-04-03T14:44:50;4.23;;;1.33;;
5569;SDS011;2808;51.240;6.794;2023-04-03T14:47:20;3.23;;;1.37;;
5569;SDS011;2808;51.240;6.794;2023-04-03T14:49:50;6.73;;;1.20;;
5569;SDS011;2808;51.240;6.794;2023-04-03T14:52:18;5.43;;;1.40;;
5569;SDS011;2808;51.240;6.794;2023-04-03T14:54:50;3.67;;;1.30;;
5569;SDS011;2808;51.240;6.794;2023-04-03T14:57:19;6.80;;;1.70;;
5569;SDS011;2808;51.240;6.794;2023-04-03T14:59:50;5.10;;;1.60;;
5569;SDS011;2808;51.240;6.794;2023-04-03T15:02:24;4.50;;;1.50;;
5569;SDS011;2808;51.240;6.794;2023-04-03T15:04:54;5.23;;;1.33;;
5569;SDS011;2808;51.240;6.794;2023-04-03T15:07:22;4.17;;;1.30;;
5569;SDS011;2808;51.240;6.794;2023-04-03T15:09:51;7.97;;;2.20;;
5569;SDS011;2808;51.240;6.794;2023-04-03T15:12:21;5.07;;;1.40;;
5569;SDS011;2808;51.240;6.794;2023-04-03T15:14:48;5.63;;;1.40;;
5569;SDS011;2808;51.240;6.794;2023-04-03T15:17:16;4.93;;;1.40;;
5569;SDS011;2808;51.240;6.794;2023-04-03T15:19:48;4.13;;;1.30;;
5569;SDS011;2808;51.240;6.794;2023-04-03T15:22:18;6.40;;;1.87;;
5569;SDS011;2808;51.240;6.794;2023-04-03T15:24:46;4.20;;;1.50;;
5569;SDS011;2808;51.240;6.794;2023-04-03T15:27:13;4.60;;;1.53;;
5569;SDS011;2808;51.240;6.794;2023-04-03T15:29:41;4.27;;;1.50;;
5569;SDS011;2808;51.240;6.794;2023-04-03T15:32:12;4.60;;;1.60;;
5569;SDS011;2808;51.240;6.794;2023-04-03T15:34:40;5.33;;;1.63;;
5569;SDS011;2808;51.240;6.794;2023-04-03T15:37:09;7.13;;;1.90;;
5569;SDS011;2808;51.240;6.794;2023-04-03T15:39:36;4.60;;;1.57;;
5569;SDS011;2808;51.240;6.794;2023-04-03T15:42:04;3.00;;;1.20;;
5569;SDS011;2808;51.240;6.794;2023-04-03T15:44:32;6.97;;;1.37;;
5569;SDS011;2808;51.240;6.794;2023-04-03T15:47:00;4.63;;;1.53;;
5569;SDS011;2808;51.240;6.794;2023-04-03T15:49:30;8.40;;;1.50;;
5569;SDS011;2808;51.240;6.794;2023-04-03T15:52:00;10.97;;;1.40;;
5569;SDS011;2808;51.240;6.794;2023-04-03T15:54:29;12.37;;;1.83;;
5569;SDS011;2808;51.240;6.794;2023-04-03T15:57:11;4.17;;;1.40;;
5569;SDS011;2808;51.240;6.794;2023-04-03T15:59:38;4.53;;;1.60;;
5569;SDS011;2808;51.240;6.794;2023-04-03T16:02:06;3.43;;;1.47;;
5569;SDS011;2808;51.240;6.794;2023-04-03T16:04:37;6.37;;;1.60;;
5569;SDS011;2808;51.240;6.794;2023-04-03T16:07:05;6.43;;;1.67;;
5569;SDS011;2808;51.240;6.794;2023-04-03T16:09:34;6.30;;;1.63;;
5569;SDS011;2808;51.240;6.794;2023-04-03T16:12:02;5.40;;;1.63;;
5569;SDS011;2808;51.240;6.794;2023-04-03T16:14:32;4.20;;;1.50;;
5569;SDS011;2808;51.240;6.794;2023-04-03T16:17:00;8.03;;;1.90;;
5569;SDS011;2808;51.240;6.794;2023-04-03T16:19:28;4.80;;;1.40;;
5569;SDS011;2808;51.240;6.794;2023-04-03T16:21:56;4.97;;;1.87;;
5569;SDS011;2808;51.240;6.794;2023-04-03T16:24:23;4.10;;;1.97;;
5569;SDS011;2808;51.240;6.794;2023-04-03T16:26:52;6.50;;;1.60;;